Time;durP1;ratioP1;P1;durP2;ratioP2;P2;SDS_P1;SDS_P2;PMS_P1;PMS_P2;Temp;Humidity;BMP_temperature;BMP_pressure;BME280_temperature;BME280_humidity;BME280_pressure;Samples;Min_cycle;Max_cycle;Signal;HPM_P1;HPM_P2
2022/05/11 00:01:38;;;;;;;7.77;7.07;;;18.90;1.00;;;18.86;60.05;100819.38;5122311;27;20446;-68
2022/05/11 00:04:09;;;;;;;7.00;6.20;;;18.70;1.00;;;18.73;60.86;100810.72;5115579;27;20413;-70
2022/05/11 00:06:39;;;;;;;7.33;6.73;;;18.60;1.00;;;18.60;61.65;100806.47;5116484;28;20457;-69
2022/05/11 00:09:14;;;;;;;8.33;7.50;;;18.50;1.00;;;18.51;62.14;100807.97;5116123;28;20444;-69
2022/05/11 00:11:44;;;;;;;8.10;7.30;;;18.30;1.00;;;18.43;62.73;100800.22;5116292;28;20460;-68
2022/05/11 00:14:14;;;;;;;10.00;7.57;;;18.20;1.00;;;18.29;63.22;100805.28;5115456;28;20481;-69
2022/05/11 00:16:43;;;;;;;6.77;5.77;;;18.20;1.00;;;18.20;63.53;100806.81;5115417;28;20485;-69
2022/05/11 00:19:12;;;;;;;8.57;7.67;;;18.00;1.00;;;18.13;63.69;100806.16;5116233;28;20441;-71
2022/05/11 00:21:41;;;;;;;8.70;7.37;;;18.00;1.00;;;18.27;63.45;100801.94;5116718;28;20474;-69
2022/05/11 00:24:10;;;;;;;8.27;7.57;;;18.00;1.00;;;18.07;63.95;100801.69;5116938;28;20928;-66
2022/05/11 00:26:39;;;;;;;9.40;8.43;;;17.90;1.00;;;18.14;63.65;100796.84;5117326;28;20428;-68
2022/05/11 00:29:08;;;;;;;7.63;7.00;;;17.90;1.00;;;18.00;63.90;100796.41;5114979;28;20459;-69
2022/05/11 00:31:38;;;;;;;8.97;7.70;;;17.80;1.00;;;17.92;63.81;100785.03;5115478;28;20483;-68
2022/05/11 00:34:07;;;;;;;8.20;5.83;;;17.80;1.00;;;17.92;63.16;100787.78;5114800;28;20884;-68
2022/05/11 00:36:37;;;;;;;10.93;8.30;;;17.70;1.00;;;17.92;62.97;100806.94;5114749;28;20470;-68
2022/05/11 00:39:06;;;;;;;7.47;6.80;;;17.70;1.00;;;17.80;62.94;100816.09;5115371;28;20448;-68
2022/05/11 00:41:35;;;;;;;6.80;5.97;;;17.60;1.00;;;17.71;62.83;100822.25;5114990;27;20450;-69
2022/05/11 00:44:06;;;;;;;6.93;6.10;;;17.60;1.00;;;17.77;62.60;100846.69;5115228;28;20411;-68
2022/05/11 00:46:50;;;;;;;7.17;6.40;;;17.60;1.00;;;17.75;62.73;100837.94;5114695;28;20477;-68
2022/05/11 00:49:38;;;;;;;7.63;6.93;;;17.50;1.00;;;17.74;62.69;100830.78;5114807;28;20860;-68
2022/05/11 00:52:14;;;;;;;7.10;6.47;;;17.50;1.00;;;17.61;63.16;100836.63;5114696;28;20468;-68
2022/05/11 00:54:48;;;;;;;8.43;6.93;;;17.40;1.00;;;17.66;63.02;100833.97;5114733;28;20481;-68
2022/05/11 00:57:23;;;;;;;6.30;5.70;;;17.40;1.00;;;17.54;63.42;100824.97;5114330;28;20428;-68
2022/05/11 00:59:55;;;;;;;6.43;5.87;;;17.40;1.00;;;17.47;63.46;100824.31;5114440;27;20416;-69
2022/05/11 01:02:27;;;;;;;9.53;6.03;;;17.30;1.00;;;17.53;63.20;100823.31;5114339;28;20427;-71
2022/05/11 01:05:04;;;;;;;9.97;7.07;;;17.30;1.00;;;17.60;63.10;100817.72;5113261;28;20775;-69
2022/05/11 01:07:36;;;;;;;7.20;6.20;;;17.40;1.00;;;17.51;63.33;100814.53;5114731;27;20457;-68
2022/05/11 01:10:07;;;;;;;7.67;5.93;;;17.40;1.00;;;17.53;63.18;100800.59;5114423;28;20429;-70
2022/05/11 01:12:44;;;;;;;6.80;6.20;;;17.40;1.00;;;17.48;63.24;100792.28;5113872;28;20407;-70
2022/05/11 01:15:17;;;;;;;7.10;6.40;;;17.30;1.00;;;17.53;62.89;100785.00;5114590;28;20436;-69
2022/05/11 01:17:48;;;;;;;7.37;6.40;;;17.40;1.00;;;17.51;63.07;100776.22;5114409;28;20440;-68
2022/05/11 01:20:21;;;;;;;8.93;5.60;;;17.30;1.00;;;17.57;62.87;100775.22;5114611;28;20963;-68
2022/05/11 01:23:00;;;;;;;8.37;6.53;;;17.40;1.00;;;17.57;62.98;100753.31;5114357;28;20398;-68
2022/05/11 01:25:35;;;;;;;6.10;5.50;;;17.40;1.00;;;17.63;63.04;100749.63;5114488;28;20405;-67
2022/05/11 01:28:10;;;;;;;6.60;5.93;;;17.40;1.00;;;17.66;62.94;100751.88;5114194;28;20445;-68
2022/05/11 01:30:40;;;;;;;7.03;6.33;;;17.40;1.00;;;17.73;62.81;100757.97;5114376;28;20551;-69
2022/05/11 01:33:15;;;;;;;9.83;6.10;;;17.50;1.00;;;17.66;63.02;100765.56;5114141;28;20412;-68
2022/05/11 01:35:59;;;;;;;10.73;6.20;;;17.50;1.00;;;17.66;63.02;100773.75;5114148;28;20488;-70
2022/05/11 01:38:39;;;;;;;5.47;5.00;;;17.50;1.00;;;17.64;63.11;100775.06;5113812;28;20530;-68
2022/05/11 01:41:14;;;;;;;6.90;6.20;;;17.40;1.00;;;17.53;63.54;100768.59;5114143;28;20903;-67
2022/05/11 01:43:43;;;;;;;6.00;5.47;;;17.40;1.00;;;17.67;63.04;100764.44;5114025;28;20473;-71
2022/05/11 01:46:13;;;;;;;7.63;6.57;;;17.50;1.00;;;17.74;63.19;100759.63;5113810;28;20482;-68
2022/05/11 01:48:43;;;;;;;7.30;6.57;;;17.50;1.00;;;17.63;63.53;100751.53;5114425;28;20714;-68
2022/05/11 01:51:13;;;;;;;7.33;6.63;;;17.50;1.00;;;17.61;63.74;100749.06;5113832;28;21059;-69
2022/05/11 01:53:44;;;;;;;7.27;6.47;;;17.50;1.00;;;17.59;64.07;100745.72;5113800;28;20392;-68
2022/05/11 01:56:19;;;;;;;8.13;6.63;;;17.40;1.00;;;17.61;64.25;100742.75;5113546;28;20397;-68
2022/05/11 01:58:49;;;;;;;8.00;6.50;;;17.40;1.00;;;17.55;64.46;100733.59;5113667;28;20896;-68
2022/05/11 02:01:23;;;;;;;8.33;6.00;;;17.30;1.00;;;17.39;65.05;100734.44;5113556;27;20438;-69
2022/05/11 02:03:52;;;;;;;7.43;6.77;;;17.20;1.00;;;17.44;64.83;100726.31;5113473;28;20437;-69
2022/05/11 02:09:09;;;;;;;9.77;5.80;;;17.30;1.00;;;17.55;64.46;100722.66;5113372;28;20448;-68
2022/05/11 02:11:39;;;;;;;7.33;6.07;;;17.30;1.00;;;17.44;64.68;100726.31;5112904;28;20539;-68
2022/05/11 02:14:08;;;;;;;6.63;5.93;;;17.30;1.00;;;17.37;65.12;100723.78;5113360;28;20421;-71
2022/05/11 02:16:37;;;;;;;8.57;7.60;;;17.30;1.00;;;17.39;65.13;100726.25;5113120;28;20503;-69
2022/05/11 02:19:06;;;;;;;8.70;7.40;;;17.20;1.00;;;17.28;65.55;100740.88;5113311;28;20810;-68
2022/05/11 02:21:35;;;;;;;6.63;5.90;;;17.20;1.00;;;17.47;65.21;100745.00;5113046;28;20409;-69
2022/05/11 02:24:04;;;;;;;6.30;5.80;;;17.30;1.00;;;17.30;65.87;100742.25;5112725;28;20444;-70
2022/05/11 02:26:34;;;;;;;6.80;6.10;;;17.20;1.00;;;17.41;65.41;100746.00;5112892;28;20456;-69
2022/05/11 02:29:04;;;;;;;10.80;7.83;;;17.20;1.00;;;17.37;65.16;100744.84;5112788;28;20444;-70
2022/05/11 02:31:33;;;;;;;6.43;5.67;;;17.20;1.00;;;17.48;64.76;100749.34;5112482;28;20460;-68
2022/05/11 02:34:05;;;;;;;8.70;7.77;;;17.30;1.00;;;17.37;65.02;100742.09;5112668;28;20510;-69
2022/05/11 02:36:35;;;;;;;6.83;6.13;;;17.20;1.00;;;17.39;64.70;100745.41;5112870;28;20460;-68
2022/05/11 02:39:04;;;;;;;6.90;6.03;;;17.20;1.00;;;17.34;64.71;100754.34;5112921;28;20458;-68
2022/05/11 02:41:32;;;;;;;7.90;7.10;;;17.20;1.00;;;17.30;65.04;100763.31;5112936;28;20410;-71
2022/05/11 02:44:01;;;;;;;7.30;6.60;;;17.20;1.00;;;17.33;64.81;100762.84;5112714;28;20395;-68
2022/05/11 02:46:31;;;;;;;6.80;6.20;;;17.10;1.00;;;17.18;65.35;100768.88;5112645;28;20875;-68
2022/05/11 02:49:00;;;;;;;7.27;6.03;;;17.00;1.00;;;17.27;65.02;100763.81;5112450;28;20942;-68
2022/05/11 02:51:28;;;;;;;9.53;7.43;;;17.10;1.00;;;17.24;65.11;100761.56;5112468;28;20460;-68
2022/05/11 02:53:57;;;;;;;7.03;6.17;;;17.10;1.00;;;17.16;65.42;100756.53;5112401;28;20435;-70
2022/05/11 02:56:26;;;;;;;7.33;6.63;;;17.00;1.00;;;17.13;65.64;100760.59;5112777;28;20531;-70
2022/05/11 02:58:54;;;;;;;7.83;7.07;;;17.00;1.00;;;17.10;65.83;100777.47;5112590;28;20952;-68
2022/05/11 03:01:23;;;;;;;7.27;6.60;;;17.00;1.00;;;17.14;65.61;100770.44;5112562;28;20413;-67
2022/05/11 03:03:53;;;;;;;8.20;5.67;;;17.00;1.00;;;17.11;65.98;100775.56;5112373;28;20482;-68
2022/05/11 03:06:22;;;;;;;12.03;6.67;;;17.00;1.00;;;17.08;66.82;100781.56;5112372;28;20421;-68
2022/05/11 03:08:50;;;;;;;6.17;5.43;;;16.90;1.00;;;17.00;67.57;100790.97;5112389;28;20449;-68
2022/05/11 03:11:19;;;;;;;7.07;6.37;;;16.90;1.00;;;17.08;67.87;100787.84;5112200;28;20420;-68
2022/05/11 03:13:48;;;;;;;7.23;6.60;;;16.90;1.00;;;17.31;66.59;100781.38;5112333;28;20384;-68
2022/05/11 03:16:16;;;;;;;7.40;6.70;;;17.10;1.00;;;17.14;66.92;100791.47;5111973;28;20399;-66
2022/05/11 03:18:45;;;;;;;9.30;7.30;;;17.10;1.00;;;17.05;67.49;100784.75;5111959;28;20441;-68
2022/05/11 03:21:16;;;;;;;12.60;6.30;;;17.00;1.00;;;16.95;68.22;100794.44;5112518;28;20705;-68
2022/05/11 03:23:44;;;;;;;7.23;6.47;;;16.90;1.00;;;16.91;68.38;100790.56;5112613;28;20890;-69
2022/05/11 03:26:14;;;;;;;8.63;6.83;;;16.80;1.00;;;16.99;67.79;100791.25;5111426;28;20391;-68
2022/05/11 03:28:43;;;;;;;6.87;6.27;;;16.90;1.00;;;17.01;67.39;100787.16;5112223;28;20411;-68
2022/05/11 03:31:12;;;;;;;9.97;7.20;;;16.90;1.00;;;17.07;67.80;100791.66;5112184;28;20395;-68
2022/05/11 03:36:28;;;;;;;7.93;7.17;;;17.10;1.00;;;17.20;67.29;100804.16;5113617;28;20448;-68
2022/05/11 03:38:57;;;;;;;11.10;7.70;;;17.10;1.00;;;17.09;67.40;100797.69;5116422;28;20448;-70
2022/05/11 03:41:26;;;;;;;8.90;8.10;;;17.00;1.00;;;17.16;67.72;100792.06;5116354;28;20925;-70
2022/05/11 03:43:54;;;;;;;8.50;7.67;;;17.00;1.00;;;17.38;67.03;100809.38;5115929;28;20460;-71
2022/05/11 03:46:23;;;;;;;8.80;7.90;;;17.10;1.00;;;17.25;67.49;100812.44;5116537;28;20399;-69
2022/05/11 03:48:52;;;;;;;7.87;7.07;;;17.10;1.00;;;17.29;66.80;100794.47;5115814;28;20464;-69
2022/05/11 03:51:20;;;;;;;7.73;7.03;;;17.10;1.00;;;17.29;67.30;100802.66;5115614;28;20403;-70
2022/05/11 03:53:50;;;;;;;7.80;7.00;;;17.10;1.00;;;17.34;67.27;100802.75;5115542;28;20478;-69
2022/05/11 03:56:19;;;;;;;9.93;7.77;;;17.10;1.00;;;17.24;67.89;100813.53;5121412;28;20417;-71
2022/05/11 03:58:48;;;;;;;8.50;7.80;;;17.10;1.00;;;17.26;67.80;100812.22;5126049;28;20454;-68
2022/05/11 04:01:17;;;;;;;7.50;6.67;;;17.10;1.00;;;17.12;68.83;100821.00;5124727;28;20924;-69
2022/05/11 04:03:47;;;;;;;9.30;8.40;;;17.00;1.30;;;17.24;69.02;100835.41;5126111;28;20733;-68
2022/05/11 04:06:15;;;;;;;9.13;7.37;;;17.00;9.20;;;17.11;69.57;100835.72;5122073;28;20384;-68
2022/05/11 04:08:44;;;;;;;10.93;8.23;;;17.00;13.30;;;17.07;70.35;100832.66;5123135;28;20423;-69
2022/05/11 04:11:14;;;;;;;8.40;7.50;;;16.90;26.10;;;17.05;70.86;100842.16;5125082;28;20416;-72
2022/05/11 04:13:43;;;;;;;10.77;8.20;;;16.90;55.00;;;17.13;70.87;100834.41;5120117;28;20464;-70
2022/05/11 04:16:12;;;;;;;12.40;7.87;;;16.90;57.50;;;17.21;70.44;100833.16;5117288;28;20388;-68
2022/05/11 04:18:41;;;;;;;8.60;7.70;;;17.00;44.30;;;17.24;70.58;100835.41;5117090;28;20448;-68
2022/05/11 04:21:10;;;;;;;9.13;8.23;;;17.10;48.20;;;17.31;70.58;100830.63;5115299;28;20403;-69
2022/05/11 04:23:40;;;;;;;9.90;8.90;;;17.10;54.90;;;17.16;70.89;100822.97;5116778;28;20434;-68
2022/05/11 04:26:09;;;;;;;12.13;8.93;;;17.00;58.60;;;17.28;71.04;100811.97;5116862;28;20417;-68
2022/05/11 04:28:43;;;;;;;9.93;8.97;;;17.00;77.90;;;17.35;70.88;100808.00;5116019;28;20449;-68
2022/05/11 04:31:14;;;;;;;9.70;8.80;;;17.10;81.70;;;17.26;71.05;100816.84;5115813;28;20408;-70
2022/05/11 04:33:43;;;;;;;10.60;9.33;;;17.10;88.50;;;17.31;71.15;100820.50;5115721;28;20423;-66
2022/05/11 04:36:11;;;;;;;13.30;8.70;;;17.10;99.90;;;17.45;70.96;100812.78;5115814;28;20456;-67
2022/05/11 04:38:40;;;;;;;10.13;9.17;;;17.10;99.90;;;17.32;71.52;100804.94;5115674;28;20922;-68
2022/05/11 04:41:09;;;;;;;15.07;9.37;;;17.10;99.90;;;17.43;70.92;100806.72;5115805;28;20409;-69
2022/05/11 04:43:39;;;;;;;10.00;8.90;;;17.10;99.90;;;17.33;71.94;100806.59;5115151;28;20391;-66
2022/05/11 04:46:08;;;;;;;10.83;9.43;;;17.00;99.90;;;17.44;71.40;100808.38;5106160;28;20910;-68
2022/05/11 04:48:37;;;;;;;10.57;9.23;;;17.10;99.90;;;17.43;72.08;100804.00;5093944;28;20469;-69
2022/05/11 04:51:05;;;;;;;11.30;10.20;;;17.10;99.90;;;17.49;72.49;100808.47;5094564;28;20512;-68
2022/05/11 04:53:34;;;;;;;9.70;8.80;;;17.20;99.90;;;17.61;72.64;100808.44;5094774;28;20888;-67
2022/05/11 04:56:03;;;;;;;12.87;9.90;;;17.40;99.90;;;17.62;72.40;100810.88;5099521;28;20420;-68
2022/05/11 04:58:31;;;;;;;11.07;9.93;;;17.40;99.90;;;17.47;73.62;100805.19;5114962;28;20680;-67
2022/05/11 05:01:01;;;;;;;10.47;9.50;;;17.20;99.90;;;17.32;73.40;100802.19;5115224;28;20398;-68
2022/05/11 05:03:30;;;;;;;13.80;10.50;;;17.10;99.90;;;17.36;72.89;100801.44;5107755;22;20496;-69
2022/05/11 05:05:59;;;;;;;11.37;9.43;;;17.10;99.90;;;17.33;73.79;100798.38;5067515;28;20417;-68
2022/05/11 05:08:28;;;;;;;10.87;9.80;;;17.10;99.90;;;17.37;73.03;100802.28;5070318;28;20857;-69
2022/05/11 05:10:57;;;;;;;12.97;11.60;;;17.10;99.90;;;17.61;71.87;100803.78;5071617;28;20446;-69
2022/05/11 05:13:26;;;;;;;13.33;11.17;;;17.20;99.90;;;17.61;71.78;100803.78;5071554;28;20421;-69
2022/05/11 05:15:58;;;;;;;10.93;9.87;;;17.20;99.90;;;17.46;72.12;100800.78;5086898;28;20416;-69
2022/05/11 05:18:29;;;;;;;11.73;10.60;;;17.20;99.90;;;17.42;72.64;100807.81;5058455;28;20495;-70
2022/05/11 05:20:58;;;;;;;12.10;10.03;;;17.10;99.90;;;17.38;72.95;100803.91;5070680;28;20474;-70
2022/05/11 05:23:28;;;;;;;13.20;10.90;;;17.10;99.90;;;17.31;73.86;100804.09;5069684;28;20445;-69
2022/05/11 05:25:56;;;;;;;10.83;9.77;;;17.10;99.90;;;17.56;72.64;100800.94;5071790;28;20525;-71
2022/05/11 05:31:14;;;;;;;11.13;9.93;;;17.20;99.90;;;17.70;72.12;100791.31;5070305;28;20465;-75
2022/05/11 05:33:45;;;;;;;11.00;9.20;;;17.40;99.90;;;17.91;71.24;100792.41;5084844;22;20551;-69
2022/05/11 05:36:14;;;;;;;10.93;9.77;;;17.60;99.90;;;17.88;71.33;100797.59;5062255;28;20397;-68
2022/05/11 05:38:43;;;;;;;11.77;10.60;;;17.50;99.90;;;17.93;70.50;100800.38;5061886;28;20398;-69
2022/05/11 05:41:14;;;;;;;11.83;10.50;;;17.50;99.90;;;18.01;70.65;100797.25;5056336;28;20413;-70
2022/05/11 05:43:43;;;;;;;11.77;9.67;;;17.60;86.10;;;18.09;70.28;100794.06;5053808;28;20440;-68
2022/05/11 05:46:12;;;;;;;13.23;10.43;;;17.70;99.90;;;18.21;69.00;100803.78;5079126;22;20511;-69
2022/05/11 05:48:40;;;;;;;14.17;9.93;;;17.80;99.90;;;18.35;68.31;100798.75;5097555;28;20408;-68
2022/05/11 05:51:13;;;;;;;11.07;9.33;;;17.90;99.90;;;18.23;69.06;100806.28;5103804;28;20939;-69
2022/05/11 05:53:44;;;;;;;10.10;9.10;;;17.90;29.40;;;18.18;69.71;100800.75;5107120;28;20545;-69
2022/05/11 05:56:15;;;;;;;12.40;11.10;;;17.80;99.90;;;18.27;70.02;100801.94;5111825;28;20427;-71
2022/05/11 05:58:45;;;;;;;12.80;10.90;;;17.80;99.90;;;18.59;69.76;100799.31;5106471;28;20266;-70
2022/05/11 06:01:16;;;;;;;11.23;10.13;;;18.00;83.10;;;18.93;69.95;100797.22;5099382;28;20446;-70
2022/05/11 06:03:46;;;;;;;11.80;10.53;;;18.30;99.90;;;19.08;69.46;100800.09;5092776;28;20441;-70
2022/05/11 06:06:16;;;;;;;10.30;9.20;;;18.50;99.90;;;19.15;69.35;100803.47;5091531;28;20705;-71
2022/05/11 06:08:45;;;;;;;9.93;9.03;;;18.50;7.90;;;19.16;67.16;100810.63;5091471;28;20407;-70
2022/05/11 06:11:14;;;;;;;10.77;9.00;;;18.50;1.00;;;19.17;65.85;100805.97;5092677;28;20414;-69
2022/05/11 06:13:45;;;;;;;10.67;8.80;;;18.60;1.00;;;19.26;66.10;100810.72;5101596;28;20419;-70
2022/05/11 06:16:16;;;;;;;9.57;8.53;;;18.70;1.00;;;19.51;65.59;100799.94;5098739;28;20476;-70
2022/05/11 06:18:47;;;;;;;13.70;10.37;;;18.90;1.00;;;19.63;66.21;100799.75;5094847;28;20472;-69
2022/05/11 06:21:17;;;;;;;14.23;10.70;;;19.00;1.00;;;19.80;65.59;100797.66;5092404;28;20429;-69
2022/05/11 06:23:47;;;;;;;11.33;9.20;;;19.10;1.00;;;19.58;64.72;100779.69;5092785;28;20425;-67
2022/05/11 06:26:17;;;;;;;11.20;10.10;;;19.10;1.00;;;19.62;64.43;100800.00;5104521;28;20417;-68
2022/05/11 06:28:47;;;;;;;11.10;9.63;;;19.20;1.00;;;19.47;64.34;100776.03;5108072;28;20440;-69
2022/05/11 06:31:22;;;;;;;10.00;8.97;;;19.10;1.00;;;19.31;64.59;100764.09;5107930;28;20404;-69
2022/05/11 06:33:53;;;;;;;11.80;9.43;;;19.00;1.00;;;19.50;64.61;100784.59;5108807;28;20415;-69
2022/05/11 06:36:24;;;;;;;12.57;10.30;;;19.10;13.40;;;19.46;64.56;100775.19;5109680;28;20472;-69
2022/05/11 06:38:54;;;;;;;9.80;8.80;;;19.00;41.00;;;19.57;63.71;100767.03;5109737;28;20392;-69
2022/05/11 06:41:27;;;;;;;12.27;10.90;;;19.10;37.00;;;20.05;63.40;100764.00;5101441;28;20442;-70
2022/05/11 06:43:56;;;;;;;10.63;9.63;;;19.40;11.50;;;20.21;61.35;100768.50;5092199;28;20435;-70
2022/05/11 06:46:25;;;;;;;12.83;9.87;;;19.70;1.20;;;19.98;61.53;100763.44;5094772;28;20431;-68
2022/05/11 06:48:54;;;;;;;11.80;9.77;;;19.50;1.00;;;19.85;61.64;100758.41;5108261;28;20435;-70
2022/05/11 06:51:24;;;;;;;13.90;9.43;;;19.40;18.70;;;19.82;61.98;100756.22;5120260;28;20421;-70
2022/05/11 06:59:30;;;;;;;9.30;7.23;;;19.40;13.50;;;19.66;59.84;100746.22;5114913;28;20445;-68
2022/05/11 07:02:03;;;;;;;7.00;6.43;;;19.30;4.70;;;19.70;60.41;100750.13;5112760;28;20465;-69
2022/05/11 07:04:35;;;;;;;10.00;8.07;;;19.20;4.00;;;20.15;60.26;100747.56;5080587;28;20462;-69
2022/05/11 07:07:07;;;;;;;8.60;7.80;;;19.40;9.70;;;20.74;58.05;100738.97;5059898;28;20510;-68
2022/05/11 07:09:39;;;;;;;9.13;8.33;;;19.90;1.00;;;21.06;56.38;100739.53;5051096;28;20429;-69
2022/05/11 07:12:20;;;;;;;8.60;7.70;;;20.10;2.00;;;21.07;55.50;100727.44;5055328;28;20518;-68
2022/05/11 07:14:51;;;;;;;11.03;8.80;;;20.20;1.00;;;21.12;55.67;100719.19;5055649;28;20520;-68
2022/05/11 07:17:31;;;;;;;7.90;7.20;;;20.50;12.00;;;21.17;55.96;100704.63;5059640;28;20435;-69
2022/05/11 07:20:02;;;;;;;8.77;7.73;;;20.50;1.00;;;21.01;56.10;100701.00;5065473;28;20402;-70
2022/05/11 07:22:32;;;;;;;10.67;7.50;;;20.50;11.80;;;20.82;56.50;100692.50;5062964;28;20402;-68
2022/05/11 07:25:01;;;;;;;7.93;7.20;;;20.40;7.30;;;20.81;56.17;100693.63;5066810;28;20394;-69
2022/05/11 07:27:30;;;;;;;8.43;7.53;;;20.30;1.00;;;21.12;55.57;100694.41;5064994;28;20813;-67
2022/05/11 07:29:59;;;;;;;9.60;8.70;;;20.40;1.00;;;20.99;55.35;100697.72;5064738;28;20498;-69
2022/05/11 07:32:27;;;;;;;8.90;8.00;;;20.40;1.00;;;20.95;54.53;100696.63;5057132;28;20402;-69
2022/05/11 07:34:56;;;;;;;7.70;6.53;;;20.50;1.00;;;21.26;55.00;100691.94;5054989;28;20504;-68
2022/05/11 07:37:25;;;;;;;8.97;8.07;;;20.60;1.00;;;21.68;53.62;100691.59;5054745;28;20425;-69
2022/05/11 07:39:56;;;;;;;9.37;6.80;;;20.80;1.00;;;21.62;53.33;100684.44;5054703;28;20459;-69
2022/05/11 07:42:25;;;;;;;8.30;6.83;;;20.90;1.00;;;22.15;52.31;100688.38;5054598;28;20482;-69
2022/05/11 07:44:54;;;;;;;9.67;7.23;;;21.30;1.00;;;22.82;50.98;100686.84;5054742;28;20439;-67
2022/05/11 07:47:23;;;;;;;20.80;8.20;;;21.70;1.00;;;22.98;48.77;100677.34;5054124;28;20476;-68
2022/05/11 07:49:52;;;;;;;7.40;6.30;;;22.10;1.00;;;22.76;48.87;100677.78;5054424;28;20922;-67
2022/05/11 07:52:21;;;;;;;7.73;7.00;;;22.10;1.00;;;22.36;49.99;100680.81;5054844;28;20394;-68
2022/05/11 07:54:49;;;;;;;8.83;7.27;;;21.90;1.00;;;22.33;50.01;100678.63;5053524;28;20565;-68
2022/05/11 08:00:08;;;;;;;7.90;7.20;;;21.90;1.00;;;22.15;50.02;100671.84;5054644;28;20427;-69
2022/05/11 08:02:40;;;;;;;8.73;7.60;;;21.60;1.00;;;22.44;50.07;100669.19;5054512;28;20399;-69
2022/05/11 08:05:12;;;;;;;7.43;6.57;;;21.80;1.00;;;22.38;49.22;100676.66;5054647;28;20384;-69
2022/05/11 08:07:45;;;;;;;8.97;7.40;;;21.90;1.00;;;22.46;49.67;100673.28;5054699;28;21164;-69
2022/05/11 08:10:17;;;;;;;7.27;6.53;;;21.90;1.00;;;22.51;49.41;100675.22;5054770;28;20985;-69
2022/05/11 08:12:49;;;;;;;6.60;5.93;;;21.90;1.00;;;23.02;49.00;100663.78;5054694;28;20459;-69
2022/05/11 08:15:19;;;;;;;7.63;6.80;;;22.10;1.00;;;23.29;47.98;100669.56;5054659;28;20532;-68
2022/05/11 08:17:49;;;;;;;8.03;7.23;;;22.40;1.00;;;23.22;48.10;100660.81;5053905;28;20525;-69
2022/05/11 08:20:23;;;;;;;7.80;7.10;;;22.30;1.00;;;22.90;47.73;100662.22;5054222;28;20974;-69
2022/05/11 08:22:53;;;;;;;6.47;5.30;;;22.40;1.00;;;23.11;47.61;100657.34;5053759;28;20430;-69
2022/05/11 08:25:25;;;;;;;8.17;6.73;;;22.40;1.00;;;23.40;47.57;100660.06;5054507;28;20427;-69
2022/05/11 08:27:56;;;;;;;7.63;5.97;;;22.70;1.00;;;23.30;47.19;100652.72;5054035;28;20490;-69
2022/05/11 08:33:27;;;;;;;8.17;6.23;;;23.00;1.00;;;23.96;46.20;100656.69;5054192;28;20913;-69
2022/05/11 08:36:19;;;;;;;8.57;6.50;;;23.20;1.00;;;24.10;45.61;100652.06;5053832;28;20481;-66
2022/05/11 08:38:52;;;;;;;8.17;5.93;;;23.40;1.00;;;24.33;45.85;100650.38;5054614;28;20409;-70
2022/05/11 08:41:33;;;;;;;9.33;7.50;;;23.60;1.00;;;24.01;46.33;100637.28;5054290;28;20515;-68
2022/05/11 08:44:09;;;;;;;6.87;6.03;;;23.50;1.00;;;24.14;46.13;100637.34;5056356;28;20441;-69
2022/05/11 08:46:53;;;;;;;7.07;6.37;;;23.60;1.00;;;23.75;46.41;100634.84;5055529;28;20503;-68
2022/05/11 08:49:36;;;;;;;8.00;7.20;;;23.40;1.00;;;23.73;46.33;100628.78;5054579;28;20459;-68
2022/05/11 08:52:15;;;;;;;6.77;6.07;;;23.50;1.00;;;24.12;45.94;100622.16;5053878;28;20510;-69
2022/05/11 08:54:49;;;;;;;9.27;7.10;;;23.50;1.00;;;24.28;45.44;100625.56;5053676;28;20429;-68
2022/05/11 08:57:23;;;;;;;6.70;6.10;;;23.50;1.00;;;24.37;45.65;100624.59;5053970;28;20595;-70
2022/05/11 09:00:03;;;;;;;7.00;6.40;;;23.80;1.00;;;24.61;45.00;100619.75;5053868;28;20430;-69
2022/05/11 09:02:47;;;;;;;7.57;6.87;;;24.00;1.00;;;24.64;44.56;100624.69;5054943;28;20878;-69
2022/05/11 09:05:18;;;;;;;8.10;7.30;;;23.90;1.00;;;24.81;44.06;100617.78;5054943;28;20408;-68
2022/05/11 09:07:49;;;;;;;7.63;6.93;;;24.10;1.00;;;24.90;44.14;100610.44;5054261;28;20474;-69
2022/05/11 09:10:31;;;;;;;8.53;7.73;;;24.20;1.00;;;24.99;43.93;100608.63;5054254;28;20436;-70
2022/05/11 09:13:04;;;;;;;8.87;7.70;;;24.20;1.00;;;25.16;43.21;100600.56;5054904;28;20393;-71
2022/05/11 09:16:01;;;;;;;9.60;6.70;;;24.40;1.00;;;25.56;42.96;100604.50;5055143;28;20490;-70
2022/05/11 09:18:42;;;;;;;11.63;8.07;;;24.80;1.00;;;25.49;42.59;100599.34;5053847;28;20481;-68
2022/05/11 09:21:27;;;;;;;8.97;8.27;;;24.90;1.00;;;25.31;42.95;100600.25;5054832;28;20405;-69
2022/05/11 09:24:27;;;;;;;10.57;7.50;;;24.80;1.00;;;25.20;43.49;100593.28;5054000;28;20404;-69
2022/05/11 09:27:08;;;;;;;9.40;8.50;;;24.70;1.00;;;25.62;42.78;100588.56;5054044;28;20917;-68
2022/05/11 09:29:42;;;;;;;7.77;7.10;;;24.90;1.00;;;25.83;42.37;100584.22;5053832;28;20402;-70
2022/05/11 09:32:31;;;;;;;9.80;8.80;;;25.20;1.00;;;26.21;41.72;100580.03;5054046;28;20401;-70
2022/05/11 09:35:21;;;;;;;11.73;9.80;;;25.50;1.00;;;26.57;41.50;100577.22;5057456;28;20437;-67
2022/05/11 09:38:00;;;;;;;8.43;7.70;;;25.90;1.00;;;27.11;40.21;100580.81;5059270;28;20829;-69
2022/05/11 09:40:31;;;;;;;10.03;9.23;;;26.30;1.00;;;27.07;40.27;100571.47;5058087;28;20466;-69
2022/05/11 09:43:04;;;;;;;10.07;9.03;;;26.40;1.00;;;27.30;39.61;100572.22;5060332;28;20491;-67
2022/05/11 09:45:45;;;;;;;9.87;9.00;;;26.50;1.00;;;27.31;39.05;100562.72;5054193;28;20427;-69
2022/05/11 09:48:23;;;;;;;9.60;8.43;;;26.70;1.00;;;27.37;38.81;100551.16;5052900;28;20997;-69
2022/05/11 09:50:55;;;;;;;9.97;9.07;;;26.80;1.00;;;27.71;38.45;100556.00;5052876;28;20435;-68
2022/05/11 09:53:33;;;;;;;9.27;8.37;;;26.90;1.00;;;27.58;38.35;100551.41;5052888;28;20427;-69
2022/05/11 09:56:22;;;;;;;8.53;7.83;;;27.00;1.00;;;27.61;39.08;100545.19;5053824;28;20466;-69
2022/05/11 09:58:52;;;;;;;12.80;8.17;;;26.90;1.00;;;27.90;38.96;100539.03;5054640;28;20453;-68
2022/05/11 10:01:29;;;;;;;9.87;8.97;;;27.20;1.00;;;27.86;38.51;100540.81;5054627;28;21013;-69
2022/05/11 10:04:06;;;;;;;13.90;9.53;;;27.20;1.00;;;28.12;38.54;100530.56;5058587;28;20433;-69
2022/05/11 10:06:57;;;;;;;11.43;10.40;;;27.20;1.00;;;28.59;37.81;100537.03;5064203;28;20453;-68
2022/05/11 10:09:33;;;;;;;10.53;9.50;;;27.70;1.00;;;28.55;37.79;100522.16;5062156;28;20438;-68
2022/05/11 10:12:15;;;;;;;11.17;10.27;;;27.80;1.00;;;28.15;37.76;100531.84;5061884;28;20418;-67
2022/05/11 10:24:33;;;;;;;9.90;8.90;;;27.50;1.00;;;27.69;38.76;100497.16;5011738;28;20535;-69
2022/05/11 10:27:15;;;;;;;8.67;7.97;;;27.50;1.00;;;27.93;39.01;100499.44;5049198;28;20463;-70
2022/05/11 10:30:08;;;;;;;7.90;7.30;;;27.50;1.00;;;27.95;38.10;100483.25;5051823;28;20435;-69
2022/05/11 10:33:10;;;;;;;8.20;7.50;;;27.50;1.00;;;27.98;37.67;100488.97;5052357;28;20512;-67
2022/05/11 10:35:57;;;;;;;8.60;7.83;;;27.60;1.00;;;27.69;37.92;100480.47;5049100;28;21041;-69
2022/05/11 10:38:45;;;;;;;9.07;8.27;;;27.40;1.00;;;27.98;38.09;100472.28;5052075;28;20427;-69
2022/05/11 10:41:29;;;;;;;8.90;8.10;;;27.60;1.00;;;28.22;37.44;100482.13;5051485;28;20427;-69
2022/05/11 10:44:08;;;;;;;8.23;7.60;;;27.70;1.00;;;28.34;37.89;100457.19;5051696;28;20423;-69
2022/05/11 10:46:42;;;;;;;7.53;6.70;;;27.80;1.00;;;28.29;37.01;100455.41;5051563;28;20549;-70
2022/05/11 10:49:38;;;;;;;10.23;9.17;;;27.90;1.00;;;28.37;37.01;100451.78;5050632;28;20435;-69
2022/05/11 10:52:43;;;;;;;7.80;7.10;;;28.00;1.00;;;28.56;36.13;100447.81;5051826;28;20522;-68
2022/05/11 10:55:25;;;;;;;7.80;7.10;;;28.10;1.00;;;28.46;35.62;100451.78;5051253;28;20819;-67
2022/05/11 10:58:15;;;;;;;7.53;6.77;;;28.00;1.00;;;27.83;36.82;100446.94;5051444;28;20436;-69
2022/05/11 11:00:48;;;;;;;7.33;6.77;;;27.60;1.00;;;28.31;35.86;100441.19;5051590;28;20427;-69
2022/05/11 11:04:10;;;;;;;6.33;5.73;;;27.80;1.00;;;28.82;34.91;100424.28;5051536;28;20518;-69
2022/05/11 11:07:13;;;;;;;7.20;6.50;;;28.10;1.00;;;28.82;34.79;100424.28;5051179;28;20929;-69
2022/05/11 11:10:02;;;;;;;6.00;5.10;;;28.30;1.00;;;28.94;33.89;100429.16;5051321;28;20489;-69